Time;durP1;ratioP1;P1;durP2;ratioP2;P2;SDS_P1;SDS_P2;PMS_P1;PMS_P2;Temp;Humidity;BMP_temperature;BMP_pressure;BME280_temperature;BME280_humidity;BME280_pressure;Samples;Min_cycle;Max_cycle;Signal;HPM_P1;HPM_P2
2023/12/15 00:01:48;;;;;;;10.90;5.97;;;;;;;4.60;100.00;99260.78;5074181;28;20241;-80
2023/12/15 00:04:17;;;;;;;10.33;6.50;;;;;;;4.58;100.00;99261.72;5074680;28;20213;-81
2023/12/15 00:06:44;;;;;;;12.77;6.13;;;;;;;4.57;100.00;99266.06;5073695;28;20217;-80
2023/12/15 00:09:10;;;;;;;12.30;6.03;;;;;;;4.56;100.00;99266.09;5074027;28;20204;-80
2023/12/15 00:11:37;;;;;;;9.00;5.50;;;;;;;4.59;100.00;99268.66;5074137;28;20229;-80
2023/12/15 00:14:03;;;;;;;11.50;6.03;;;;;;;4.60;100.00;99276.47;5074489;28;20218;-80
2023/12/15 00:16:30;;;;;;;10.80;5.43;;;;;;;4.57;100.00;99271.31;5073664;28;20208;-80
2023/12/15 00:18:56;;;;;;;13.30;6.17;;;;;;;4.56;100.00;99284.44;5074195;28;20213;-80
2023/12/15 00:21:24;;;;;;;11.53;6.10;;;;;;;4.52;100.00;99294.13;5073872;28;20233;-80
2023/12/15 00:23:51;;;;;;;10.13;5.73;;;;;;;4.56;100.00;99285.31;5073138;28;20207;-80
2023/12/15 00:26:17;;;;;;;12.77;5.90;;;;;;;4.58;100.00;99293.97;5073153;28;20208;-80
2023/12/15 00:28:44;;;;;;;10.83;5.83;;;;;;;4.55;100.00;99283.59;5074145;28;20205;-80
2023/12/15 00:31:10;;;;;;;13.77;5.97;;;;;;;4.51;100.00;99295.03;5073931;28;20569;-80
2023/12/15 00:33:36;;;;;;;10.77;5.37;;;;;;;4.50;100.00;99290.72;5073943;28;20208;-80
2023/12/15 00:36:03;;;;;;;13.30;5.90;;;;;;;4.50;100.00;99295.94;5074824;28;20214;-80
2023/12/15 00:38:31;;;;;;;13.50;6.07;;;;;;;4.46;100.00;99304.75;5074712;28;20231;-80
2023/12/15 00:40:58;;;;;;;13.03;5.63;;;;;;;4.46;100.00;99315.25;5073010;28;20675;-80
2023/12/15 00:43:24;;;;;;;12.67;5.70;;;;;;;4.41;100.00;99317.13;5072510;28;20208;-80
2023/12/15 00:45:51;;;;;;;11.40;5.83;;;;;;;4.41;100.00;99322.34;5072383;28;20220;-80
2023/12/15 00:48:17;;;;;;;12.07;5.60;;;;;;;4.38;100.00;99311.97;5072902;28;20207;-80
2023/12/15 00:50:44;;;;;;;14.93;5.90;;;;;;;4.41;100.00;99319.72;5072258;28;20675;-80
2023/12/15 00:53:10;;;;;;;9.37;5.10;;;;;;;4.37;100.00;99325.09;5072769;28;20207;-80
2023/12/15 00:55:38;;;;;;;10.47;5.50;;;;;;;4.37;100.00;99319.84;5072492;28;20213;-80
2023/12/15 00:58:05;;;;;;;11.03;5.40;;;;;;;4.37;100.00;99325.09;5072551;28;20222;-80
2023/12/15 01:00:31;;;;;;;11.43;5.47;;;;;;;4.37;100.00;99332.94;5072556;28;20263;-80
2023/12/15 01:02:58;;;;;;;10.83;5.67;;;;;;;4.36;100.00;99334.72;5072295;28;20228;-80
2023/12/15 01:05:24;;;;;;;10.27;5.60;;;;;;;4.32;100.00;99338.31;5071931;28;20208;-80
2023/12/15 01:07:50;;;;;;;11.23;5.37;;;;;;;4.32;100.00;99340.03;5072562;28;20212;-80
2023/12/15 01:10:17;;;;;;;12.17;5.80;;;;;;;4.32;100.00;99340.91;5072619;28;20208;-80
2023/12/15 01:12:45;;;;;;;14.97;6.07;;;;;;;4.31;100.00;99344.44;5072729;28;20220;-80
2023/12/15 01:15:11;;;;;;;10.03;5.97;;;;;;;4.28;100.00;99347.13;5072300;28;20670;-80
2023/12/15 01:17:38;;;;;;;12.70;5.90;;;;;;;4.26;100.00;99359.38;5073163;28;20561;-80
2023/12/15 01:20:05;;;;;;;10.93;5.53;;;;;;;4.21;100.00;99361.25;5073093;28;20222;-80
2023/12/15 01:22:32;;;;;;;13.70;5.90;;;;;;;4.25;100.00;99373.38;5073157;28;20239;-80
2023/12/15 01:24:58;;;;;;;12.60;6.40;;;;;;;4.23;100.00;99377.75;5072581;28;20698;-80
2023/12/15 01:27:25;;;;;;;11.90;5.63;;;;;;;4.27;100.00;99374.19;5072899;28;20212;-80
2023/12/15 01:29:52;;;;;;;12.10;5.77;;;;;;;4.26;100.00;99385.56;5073096;28;20208;-80
2023/12/15 01:32:19;;;;;;;11.07;5.70;;;;;;;4.19;100.00;99386.59;5072736;28;20225;-80
2023/12/15 01:34:45;;;;;;;15.70;6.60;;;;;;;4.23;100.00;99400.47;5072613;28;20215;-80
2023/12/15 01:37:12;;;;;;;14.03;6.63;;;;;;;4.24;100.00;99397.81;5076722;28;20220;-80
2023/12/15 01:39:38;;;;;;;11.87;6.30;;;;;;;4.21;100.00;99403.13;5076371;28;20587;-80
2023/12/15 01:42:05;;;;;;;14.63;6.33;;;;;;;4.28;100.00;99403.84;5074674;28;20244;-80
2023/12/15 01:44:33;;;;;;;11.37;5.67;;;;;;;4.26;100.00;99401.25;5075489;28;20229;-80
2023/12/15 01:47:01;;;;;;;12.53;5.97;;;;;;;4.23;100.00;99411.78;5076187;28;20213;-80
2023/12/15 01:49:28;;;;;;;14.33;6.97;;;;;;;4.26;100.00;99416.09;5075974;28;20212;-80
2023/12/15 01:51:55;;;;;;;13.83;6.77;;;;;;;4.27;100.00;99416.06;5075477;28;20229;-80
2023/12/15 01:54:21;;;;;;;12.40;5.70;;;;;;;4.28;100.00;99409.91;5075908;28;20204;-80
2023/12/15 01:56:48;;;;;;;12.57;5.70;;;;;;;4.35;100.00;99421.97;5074879;28;20583;-80
2023/12/15 01:59:14;;;;;;;14.17;5.60;;;;;;;4.35;100.00;99421.97;5074416;28;20212;-79
2023/12/15 02:01:42;;;;;;;13.83;5.40;;;;;;;4.29;100.00;99416.88;5075138;28;20578;-79
2023/12/15 02:04:10;;;;;;;12.37;6.00;;;;;;;4.34;100.00;99417.63;5076273;28;20213;-80
2023/12/15 02:06:37;;;;;;;12.90;6.10;;;;;;;4.32;100.00;99424.66;5076122;28;20218;-80
2023/12/15 02:09:04;;;;;;;11.07;5.37;;;;;;;4.29;100.00;99422.09;5074877;28;20218;-80
2023/12/15 02:11:30;;;;;;;13.13;6.17;;;;;;;4.25;100.00;99423.09;5074776;28;20233;-80
2023/12/15 02:13:56;;;;;;;13.80;5.43;;;;;;;4.28;100.00;99424.78;5074691;28;20800;-80
2023/12/15 02:16:23;;;;;;;9.50;4.73;;;;;;;4.21;100.00;99424.06;5074413;28;20213;-80
2023/12/15 02:18:49;;;;;;;12.17;6.20;;;;;;;4.06;100.00;99418.31;5075162;28;20209;-80
2023/12/15 02:21:17;;;;;;;10.90;5.00;;;;;;;3.94;100.00;99429.94;5074438;28;20228;-80
2023/12/15 02:23:45;;;;;;;10.00;4.93;;;;;;;3.71;100.00;99429.56;5075090;28;20209;-80
2023/12/15 02:26:11;;;;;;;11.17;5.60;;;;;;;3.60;100.00;99433.31;5074320;28;20203;-80
2023/12/15 02:28:38;;;;;;;10.07;5.50;;;;;;;3.53;100.00;99432.56;5074593;28;20211;-80
2023/12/15 02:31:05;;;;;;;10.40;5.37;;;;;;;3.46;100.00;99438.81;5074775;28;20235;-80
2023/12/15 02:33:31;;;;;;;11.10;5.53;;;;;;;3.41;100.00;99435.44;5074556;28;20210;-80
2023/12/15 02:35:58;;;;;;;12.87;5.43;;;;;;;3.38;100.00;99421.56;5073939;28;20239;-80
2023/12/15 02:38:24;;;;;;;13.43;6.47;;;;;;;3.35;100.00;99426.84;5075205;28;20406;-79
2023/12/15 02:40:52;;;;;;;10.87;5.60;;;;;;;3.32;100.00;99438.25;5074085;28;20228;-80
2023/12/15 02:43:18;;;;;;;14.70;6.37;;;;;;;3.30;100.00;99437.38;5073853;28;20232;-79
2023/12/15 02:45:45;;;;;;;10.30;5.33;;;;;;;3.28;100.00;99448.75;5073935;28;20243;-80
2023/12/15 02:48:12;;;;;;;14.10;6.63;;;;;;;3.43;100.00;99445.84;5074065;28;20212;-79
2023/12/15 02:50:38;;;;;;;13.23;6.33;;;;;;;3.52;100.00;99450.88;5074265;28;20562;-79
2023/12/15 02:53:04;;;;;;;15.13;6.83;;;;;;;3.60;100.00;99455.06;5073966;28;20252;-79
2023/12/15 02:55:31;;;;;;;13.00;6.20;;;;;;;3.66;100.00;99454.94;5073598;28;20214;-79
2023/12/15 02:57:58;;;;;;;14.83;6.30;;;;;;;3.73;100.00;99456.53;5074080;28;20281;-79
2023/12/15 03:00:24;;;;;;;11.77;6.10;;;;;;;3.82;100.00;99461.56;5074044;28;20219;-79
2023/12/15 03:02:51;;;;;;;12.07;6.43;;;;;;;3.80;100.00;99468.56;5073539;28;20611;-80
2023/12/15 03:05:17;;;;;;;11.87;6.37;;;;;;;3.83;100.00;99463.28;5073862;28;20208;-81
2023/12/15 03:07:44;;;;;;;12.40;6.03;;;;;;;3.86;100.00;99457.97;5074467;28;20208;-79
2023/12/15 03:10:10;;;;;;;13.33;6.60;;;;;;;3.95;100.00;99468.25;5073707;28;20208;-80
2023/12/15 03:12:37;;;;;;;14.83;6.30;;;;;;;3.94;100.00;99477.00;5074322;28;20565;-79
2023/12/15 03:15:05;;;;;;;12.13;6.10;;;;;;;3.97;100.00;99479.53;5073153;28;20203;-79
2023/12/15 03:17:32;;;;;;;14.37;6.93;;;;;;;3.97;100.00;99482.16;5073547;28;20671;-79
2023/12/15 03:19:58;;;;;;;11.83;6.43;;;;;;;4.01;100.00;99488.19;5073655;28;20212;-79
2023/12/15 03:22:25;;;;;;;10.93;6.23;;;;;;;4.01;100.00;99489.06;5073256;28;20236;-79
2023/12/15 03:24:51;;;;;;;10.67;6.27;;;;;;;4.04;100.00;99488.97;5072891;28;20295;-79
2023/12/15 03:27:18;;;;;;;13.57;6.30;;;;;;;4.01;100.00;99489.06;5073241;28;20680;-79
2023/12/15 03:29:44;;;;;;;13.43;5.97;;;;;;;4.05;100.00;99490.72;5073658;28;20215;-79
2023/12/15 03:32:12;;;;;;;9.53;5.73;;;;;;;4.07;100.00;99498.50;5072908;28;20236;-79
2023/12/15 03:34:39;;;;;;;9.13;5.50;;;;;;;4.08;100.00;99500.22;5072734;28;20208;-79
2023/12/15 03:37:05;;;;;;;9.43;5.10;;;;;;;4.08;100.00;99503.72;5073173;28;20220;-79
2023/12/15 03:39:32;;;;;;;13.03;6.10;;;;;;;4.07;100.00;99502.00;5072711;28;20582;-80
2023/12/15 03:41:58;;;;;;;12.80;7.17;;;;;;;4.13;100.00;99507.09;5072737;28;20227;-79
2023/12/15 03:44:25;;;;;;;10.67;5.50;;;;;;;4.09;100.00;99497.59;5072053;28;20215;-78
2023/12/15 03:46:51;;;;;;;11.00;4.97;;;;;;;4.10;100.00;99507.16;5072857;28;20217;-81
2023/12/15 03:49:19;;;;;;;7.93;5.33;;;;;;;4.13;100.00;99511.47;5072505;28;20208;-81
2023/12/15 03:51:45;;;;;;;9.17;5.50;;;;;;;4.13;100.00;99514.94;5072477;28;20231;-79
2023/12/15 03:54:12;;;;;;;7.93;5.13;;;;;;;4.16;100.00;99527.94;5072550;28;20209;-79
2023/12/15 03:56:38;;;;;;;9.13;4.90;;;;;;;4.18;100.00;99528.81;5072223;28;20605;-81
2023/12/15 03:59:05;;;;;;;11.37;5.53;;;;;;;4.20;100.00;99533.97;5073266;28;20212;-79
2023/12/15 04:01:32;;;;;;;9.40;4.83;;;;;;;4.23;100.00;99537.38;5073390;28;20779;-79
2023/12/15 04:03:58;;;;;;;9.23;5.33;;;;;;;4.24;100.00;99531.28;5073405;28;20235;-81
2023/12/15 04:06:26;;;;;;;8.17;4.97;;;;;;;4.24;100.00;99523.44;5073248;28;20217;-81
2023/12/15 04:08:53;;;;;;;7.43;4.67;;;;;;;4.23;100.00;99521.69;5073877;28;20208;-79
2023/12/15 04:11:19;;;;;;;9.00;5.17;;;;;;;4.25;100.00;99529.50;5073867;28;20237;-79
2023/12/15 04:13:45;;;;;;;10.67;5.90;;;;;;;4.27;100.00;99538.22;5074135;28;20209;-81
2023/12/15 04:16:12;;;;;;;10.47;6.10;;;;;;;4.25;100.00;99538.25;5072912;28;20216;-80
2023/12/15 04:18:39;;;;;;;9.70;4.93;;;;;;;4.26;100.00;99547.81;5073455;28;20212;-79
2023/12/15 04:21:06;;;;;;;8.77;5.63;;;;;;;4.24;100.00;99554.84;5073565;28;20228;-79
2023/12/15 04:23:34;;;;;;;9.37;5.50;;;;;;;4.22;100.00;99553.97;5073786;28;20263;-79
2023/12/15 04:26:01;;;;;;;10.83;5.93;;;;;;;4.20;100.00;99555.78;5073485;28;20215;-79
2023/12/15 04:28:28;;;;;;;9.23;5.70;;;;;;;4.22;100.00;99555.75;5074241;28;20696;-79
2023/12/15 04:30:54;;;;;;;8.73;5.37;;;;;;;4.27;100.00;99562.59;5073393;28;20215;-79
2023/12/15 04:33:21;;;;;;;11.03;5.77;;;;;;;4.22;100.00;99567.06;5072898;28;20224;-79
2023/12/15 04:35:47;;;;;;;8.97;5.17;;;;;;;4.23;100.00;99571.41;5071722;28;20594;-79
2023/12/15 04:38:13;;;;;;;9.50;5.07;;;;;;;4.29;100.00;99567.81;5072237;28;20214;-79
2023/12/15 04:40:42;;;;;;;12.03;5.60;;;;;;;4.24;100.00;99573.16;5072563;28;20208;-79
2023/12/15 04:43:08;;;;;;;11.13;5.60;;;;;;;4.23;100.00;99567.94;5071953;28;20308;-79
2023/12/15 04:45:35;;;;;;;9.27;5.23;;;;;;;4.24;100.00;99577.50;5071617;28;20208;-79
2023/12/15 04:48:01;;;;;;;10.37;5.50;;;;;;;4.23;100.00;99578.41;5072116;28;20209;-79
2023/12/15 04:50:28;;;;;;;11.83;6.30;;;;;;;4.25;100.00;99581.84;5072014;28;20204;-79
2023/12/15 04:52:55;;;;;;;10.27;5.47;;;;;;;4.26;100.00;99587.06;5071849;28;20224;-79
2023/12/15 04:55:21;;;;;;;11.17;5.60;;;;;;;4.21;100.00;99588.06;5071538;28;20234;-78
2023/12/15 04:57:49;;;;;;;17.33;5.97;;;;;;;4.25;100.00;99587.97;5072171;28;20218;-79
2023/12/15 05:00:16;;;;;;;8.33;5.43;;;;;;;4.23;100.00;99583.66;5072328;28;20235;-79
2023/12/15 05:02:42;;;;;;;7.97;4.87;;;;;;;4.22;100.00;99587.16;5071659;28;20649;-79
2023/12/15 05:05:09;;;;;;;9.23;5.13;;;;;;;4.18;100.00;99586.38;5071346;28;20203;-79
2023/12/15 05:07:35;;;;;;;9.53;5.13;;;;;;;4.16;100.00;99585.50;5071772;28;20218;-79
2023/12/15 05:10:03;;;;;;;10.30;5.97;;;;;;;4.21;100.00;99586.28;5073036;28;20204;-80
2023/12/15 05:12:33;;;;;;;13.07;5.27;;;;;;;4.19;100.00;99593.31;5076293;28;20224;-79
2023/12/15 05:15:01;;;;;;;9.17;5.47;;;;;;;4.19;100.00;99608.16;5075357;28;20215;-79
2023/12/15 05:17:27;;;;;;;10.80;5.60;;;;;;;4.23;100.00;99600.19;5075629;28;20698;-79
2023/12/15 05:19:54;;;;;;;9.87;5.93;;;;;;;4.26;100.00;99600.16;5075706;28;20215;-79
2023/12/15 05:22:20;;;;;;;11.70;5.87;;;;;;;4.29;100.00;99615.75;5075548;28;20229;-79
2023/12/15 05:24:47;;;;;;;11.90;5.47;;;;;;;4.28;100.00;99616.66;5075166;28;20208;-79
2023/12/15 05:27:14;;;;;;;9.37;6.13;;;;;;;4.34;100.00;99615.69;5075554;28;20212;-82
2023/12/15 05:29:45;;;;;;;9.13;5.63;;;;;;;4.30;100.00;99625.38;5075180;28;20209;-79
2023/12/15 05:32:14;;;;;;;9.77;5.27;;;;;;;4.33;100.00;99627.91;5075114;28;20595;-79
2023/12/15 05:34:41;;;;;;;10.57;5.47;;;;;;;4.37;100.00;99639.16;5074918;28;20735;-79
2023/12/15 05:37:07;;;;;;;9.57;5.67;;;;;;;4.41;100.00;99644.31;5075439;28;20216;-79
2023/12/15 05:39:34;;;;;;;9.87;6.03;;;;;;;4.36;100.00;99654.03;5075605;28;20592;-79
2023/12/15 05:42:00;;;;;;;9.63;5.43;;;;;;;4.33;100.00;99654.06;5074973;28;20231;-79
2023/12/15 05:44:27;;;;;;;8.30;4.87;;;;;;;4.36;100.00;99664.50;5074302;28;20235;-79
2023/12/15 05:46:53;;;;;;;10.73;4.70;;;;;;;4.36;100.00;99671.47;5075315;28;20209;-79
2023/12/15 05:49:21;;;;;;;10.00;5.20;;;;;;;4.35;100.00;99673.22;5075429;28;20208;-79
2023/12/15 05:51:49;;;;;;;7.80;4.80;;;;;;;4.36;100.00;99681.94;5075204;28;20608;-79
2023/12/15 05:54:15;;;;;;;8.40;5.10;;;;;;;4.42;100.00;99684.44;5074965;28;20334;-79
2023/12/15 05:56:42;;;;;;;9.23;5.73;;;;;;;4.38;100.00;99691.50;5074616;28;20478;-79
2023/12/15 05:59:08;;;;;;;8.70;4.80;;;;;;;4.39;100.00;99695.84;5075264;28;20212;-79
2023/12/15 06:01:35;;;;;;;8.10;4.97;;;;;;;4.39;100.00;99700.22;5075327;28;20320;-79
2023/12/15 06:04:01;;;;;;;7.93;4.80;;;;;;;4.42;100.00;99695.78;5074022;28;20229;-79
2023/12/15 06:06:29;;;;;;;8.70;5.60;;;;;;;4.41;100.00;99696.66;5073576;28;20228;-81
2023/12/15 06:08:56;;;;;;;9.77;5.73;;;;;;;4.44;100.00;99699.22;5074152;28;20221;-79
2023/12/15 06:11:23;;;;;;;8.20;5.33;;;;;;;4.47;100.00;99698.31;5073446;28;20236;-79
2023/12/15 06:13:49;;;;;;;7.50;5.20;;;;;;;4.46;100.00;99702.66;5073487;28;20220;-80
2023/12/15 06:16:20;;;;;;;9.70;5.90;;;;;;;4.52;100.00;99718.25;5073203;28;20214;-81
2023/12/15 06:18:46;;;;;;;9.43;5.83;;;;;;;4.48;100.00;99720.97;5073247;28;20217;-79
2023/12/15 06:21:20;;;;;;;9.70;6.17;;;;;;;4.51;100.00;99713.91;5072844;28;20232;-79
2023/12/15 06:23:48;;;;;;;9.57;5.83;;;;;;;4.57;100.00;99719.03;5073365;28;20259;-79
2023/12/15 06:26:18;;;;;;;10.20;5.83;;;;;;;4.60;100.00;99720.72;5072982;28;20311;-79
2023/12/15 06:28:44;;;;;;;8.97;5.80;;;;;;;4.62;100.00;99730.28;5073657;28;20250;-79
2023/12/15 06:31:11;;;;;;;9.53;5.57;;;;;;;4.63;100.00;99726.75;5073314;28;20241;-79
2023/12/15 06:33:37;;;;;;;10.20;6.07;;;;;;;4.65;100.00;99724.97;5073411;28;20215;-79
2023/12/15 06:36:04;;;;;;;10.97;5.83;;;;;;;4.67;100.00;99733.69;5072477;28;20209;-79
2023/12/15 06:38:31;;;;;;;9.23;5.77;;;;;;;4.66;100.00;99726.72;5073242;28;20223;-79
2023/12/15 06:40:59;;;;;;;9.93;5.70;;;;;;;4.69;100.00;99726.63;5073103;28;20236;-80
2023/12/15 06:43:25;;;;;;;10.17;5.77;;;;;;;4.68;100.00;99743.25;5073229;28;20251;-79
2023/12/15 06:45:52;;;;;;;8.57;5.37;;;;;;;4.64;100.00;99738.13;5072247;28;20220;-80
2023/12/15 06:48:18;;;;;;;8.87;5.17;;;;;;;4.59;100.00;99740.81;5072631;28;20213;-79
2023/12/15 06:50:45;;;;;;;10.07;5.70;;;;;;;4.58;100.00;99748.72;5072764;28;20292;-79
2023/12/15 06:53:11;;;;;;;8.57;5.47;;;;;;;4.57;100.00;99762.66;5072967;28;20215;-79
2023/12/15 06:55:37;;;;;;;8.23;5.50;;;;;;;4.61;100.00;99759.97;5072137;28;20208;-79
2023/12/15 06:58:05;;;;;;;10.73;6.23;;;;;;;4.59;100.00;99766.13;5073110;28;20207;-81
2023/12/15 07:00:33;;;;;;;9.00;5.87;;;;;;;4.64;100.00;99772.16;5072476;28;20582;-80
2023/12/15 07:02:59;;;;;;;12.07;6.10;;;;;;;4.69;100.00;99768.53;5035755;28;1062333;-80
2023/12/15 07:05:25;;;;;;;11.27;6.63;;;;;;;4.67;100.00;99770.34;5073194;28;20221;-80
2023/12/15 07:07:52;;;;;;;10.93;6.30;;;;;;;4.70;100.00;99779.88;5073722;28;20207;-80
2023/12/15 07:10:18;;;;;;;22.53;7.27;;;;;;;4.67;100.00;99780.81;5073726;28;20218;-80
2023/12/15 07:12:45;;;;;;;11.43;7.17;;;;;;;4.75;100.00;99783.25;5073393;28;20229;-78
2023/12/15 07:15:13;;;;;;;12.77;7.00;;;;;;;4.74;100.00;99782.41;5072696;28;20216;-77
2023/12/15 07:17:39;;;;;;;13.43;7.73;;;;;;;4.73;100.00;99780.69;5073398;28;20215;-79
2023/12/15 07:20:08;;;;;;;12.77;7.60;;;;;;;4.73;100.00;99788.56;5073246;28;20682;-81
2023/12/15 07:22:34;;;;;;;16.67;6.90;;;;;;;4.80;100.00;99792.78;5073159;28;20238;-81
2023/12/15 07:25:01;;;;;;;11.40;6.50;;;;;;;4.77;100.00;99792.81;5072830;28;20244;-81
2023/12/15 07:27:28;;;;;;;11.40;7.30;;;;;;;4.78;100.00;99804.16;5073400;28;20285;-81
2023/12/15 07:29:54;;;;;;;10.80;6.77;;;;;;;4.82;100.00;99805.84;5073239;28;20209;-81
2023/12/15 07:32:22;;;;;;;12.63;7.00;;;;;;;4.82;100.00;99811.09;5072619;28;20232;-81
2023/12/15 07:34:49;;;;;;;12.80;7.60;;;;;;;4.81;100.00;99812.81;5072989;28;20201;-82
2023/12/15 07:37:15;;;;;;;12.57;7.13;;;;;;;4.86;100.00;99817.97;5070449;28;20235;-80
2023/12/15 07:39:42;;;;;;;13.73;7.60;;;;;;;4.91;100.00;99826.59;5072915;28;20251;-81
2023/12/15 07:42:09;;;;;;;11.63;7.33;;;;;;;4.91;100.00;99817.00;5073107;28;20220;-80
2023/12/15 07:44:35;;;;;;;12.67;7.50;;;;;;;4.93;100.00;99815.19;5071576;28;20286;-81
2023/12/15 07:47:02;;;;;;;12.83;7.60;;;;;;;4.93;100.00;99825.69;5072054;28;20208;-82
2023/12/15 07:49:33;;;;;;;12.47;7.63;;;;;;;4.95;100.00;99834.38;5072822;28;20214;-81
2023/12/15 07:52:00;;;;;;;15.60;8.70;;;;;;;4.97;100.00;99826.47;5066621;28;20231;-81
2023/12/15 07:54:29;;;;;;;14.77;7.93;;;;;;;5.06;100.00;99815.84;5073165;28;20352;-82
2023/12/15 07:56:55;;;;;;;15.30;8.40;;;;;;;5.07;100.00;99815.78;5072929;28;20209;-82
2023/12/15 07:59:22;;;;;;;13.83;7.37;;;;;;;5.09;100.00;99827.13;5074019;28;20214;-84
2023/12/15 08:01:50;;;;;;;14.13;8.50;;;;;;;5.11;100.00;99835.78;5074865;28;20245;-83
2023/12/15 08:04:17;;;;;;;13.57;7.70;;;;;;;5.11;100.00;99830.56;5074265;28;20687;-83
2023/12/15 08:06:45;;;;;;;13.10;8.13;;;;;;;5.12;100.00;99831.44;5073460;28;20209;-82
2023/12/15 08:09:11;;;;;;;13.33;7.47;;;;;;;5.10;100.00;99839.31;5073663;28;20214;-82
2023/12/15 08:11:38;;;;;;;11.67;6.53;;;;;;;5.13;100.00;99834.00;5073932;28;20296;-83
2023/12/15 08:14:04;;;;;;;13.23;7.23;;;;;;;5.15;100.00;99849.69;5076284;28;20213;-84
2023/12/15 08:16:31;;;;;;;13.03;7.83;;;;;;;5.13;100.00;99852.34;5074501;28;20258;-82
2023/12/15 08:18:57;;;;;;;10.87;7.17;;;;;;;5.13;100.00;99848.88;5072255;28;20650;-83
2023/12/15 08:21:24;;;;;;;13.70;7.47;;;;;;;5.14;100.00;99851.44;5058274;28;20236;-82
2023/12/15 08:23:52;;;;;;;11.53;6.70;;;;;;;5.19;100.00;99860.06;5067504;28;20236;-82
2023/12/15 08:26:27;;;;;;;13.40;7.47;;;;;;;5.23;100.00;99864.38;5069244;28;20585;-83
2023/12/15 08:28:54;;;;;;;13.27;7.27;;;;;;;5.26;100.00;99866.91;5073054;28;20221;-82
2023/12/15 08:31:20;;;;;;;10.37;6.70;;;;;;;5.28;100.00;99870.38;5071400;28;20241;-81
2023/12/15 08:33:47;;;;;;;11.10;6.83;;;;;;;5.29;100.00;99874.72;5070786;28;20380;-82
2023/12/15 08:36:14;;;;;;;13.17;7.37;;;;;;;5.31;100.00;99879.97;5070635;28;20236;-81
2023/12/15 08:38:40;;;;;;;12.47;7.70;;;;;;;5.34;100.00;99880.75;5071510;28;20608;-82
2023/12/15 08:41:08;;;;;;;8.97;5.83;;;;;;;5.40;100.00;99880.63;5061387;28;20230;-81
2023/12/15 08:43:35;;;;;;;10.00;6.00;;;;;;;5.46;100.00;99880.50;5049797;28;20238;-82
2023/12/15 08:46:02;;;;;;;10.07;6.40;;;;;;;5.45;100.00;99898.88;5068545;28;20569;-82
2023/12/15 08:48:28;;;;;;;9.93;5.87;;;;;;;5.42;100.00;99905.03;5070571;28;20207;-81
2023/12/15 08:50:55;;;;;;;8.70;5.80;;;;;;;5.44;100.00;99903.25;5070763;28;20204;-82
2023/12/15 08:53:21;;;;;;;12.63;6.30;;;;;;;5.44;100.00;99908.50;5070563;28;20214;-81
2023/12/15 08:55:48;;;;;;;10.77;6.60;;;;;;;5.41;100.00;99910.31;5070420;28;20222;-80
2023/12/15 08:58:16;;;;;;;11.57;6.47;;;;;;;5.44;100.00;99916.34;5071069;28;20536;-81
2023/12/15 09:00:43;;;;;;;11.33;6.20;;;;;;;5.44;100.00;99921.59;5072301;28;20211;-82
2023/12/15 09:03:09;;;;;;;13.50;6.10;;;;;;;5.52;100.00;99927.56;5073927;28;20228;-82
2023/12/15 09:05:36;;;;;;;10.17;6.03;;;;;;;5.54;100.00;99928.41;5072685;28;20625;-81
2023/12/15 09:08:03;;;;;;;10.00;6.30;;;;;;;5.56;100.00;99917.88;5072762;28;20237;-82
2023/12/15 09:10:33;;;;;;;10.93;5.70;;;;;;;5.59;100.00;99918.69;5072781;28;20214;-83
2023/12/15 09:13:00;;;;;;;10.20;6.17;;;;;;;5.72;100.00;99925.38;5073530;28;20265;-81
2023/12/15 09:15:28;;;;;;;12.17;6.07;;;;;;;5.71;100.00;99918.41;5072871;28;20618;-81
2023/12/15 09:17:54;;;;;;;9.23;6.27;;;;;;;5.71;100.00;99923.66;5073687;28;20209;-82
2023/12/15 09:20:21;;;;;;;12.15;7.75;;;;;;;5.76;100.00;99927.06;5079525;28;20819;-80
2023/12/15 09:22:47;;;;;;;9.70;6.23;;;;;;;5.83;100.00;99933.94;5079741;28;20231;-80
2023/12/15 09:25:14;;;;;;;9.57;6.27;;;;;;;5.91;100.00;99939.84;5079560;28;20340;-80
2023/12/15 09:27:40;;;;;;;8.13;5.67;;;;;;;5.93;100.00;99943.31;5079385;28;20225;-80
2023/12/15 09:30:08;;;;;;;10.33;5.80;;;;;;;5.95;100.00;99941.53;5075135;28;20210;-81
2023/12/15 09:32:35;;;;;;;9.03;5.90;;;;;;;5.95;100.00;99935.41;5073923;28;20712;-81
2023/12/15 09:35:02;;;;;;;8.40;5.73;;;;;;;5.97;100.00;99944.09;5073088;28;20209;-81
2023/12/15 09:37:29;;;;;;;9.13;5.63;;;;;;;6.01;100.00;99945.75;5073697;28;20206;-81
2023/12/15 09:39:55;;;;;;;8.33;5.57;;;;;;;6.03;100.00;99934.34;5073560;28;20524;-80
2023/12/15 09:42:23;;;;;;;8.83;5.60;;;;;;;6.05;100.00;99935.16;5072644;28;20623;-81
2023/12/15 09:44:50;;;;;;;9.53;5.67;;;;;;;6.09;100.00;99941.19;5072525;28;20268;-80
2023/12/15 09:47:22;;;;;;;8.97;4.80;;;;;;;6.13;100.00;99949.00;5073432;28;20674;-83
2023/12/15 09:49:52;;;;;;;7.60;5.23;;;;;;;6.21;100.00;99949.66;5072532;28;20210;-80
2023/12/15 09:52:21;;;;;;;8.43;5.20;;;;;;;6.23;100.00;99944.38;5072666;28;20572;-81
2023/12/15 09:54:48;;;;;;;10.17;5.80;;;;;;;6.23;100.00;99939.97;5073217;28;20677;-81
2023/12/15 09:57:15;;;;;;;11.20;6.70;;;;;;;6.24;100.00;99941.72;5073739;28;20445;-81
2023/12/15 09:59:42;;;;;;;8.80;5.60;;;;;;;6.34;100.00;99935.34;5074075;28;20213;-81
2023/12/15 10:02:09;;;;;;;9.57;6.13;;;;;;;6.34;100.00;99932.72;5074678;28;20330;-82
2023/12/15 10:04:35;;;;;;;9.83;5.47;;;;;;;6.42;100.00;99941.28;5074200;28;20230;-81
2023/12/15 10:07:04;;;;;;;10.17;5.87;;;;;;;6.50;100.00;99949.84;5073757;28;20623;-81
2023/12/15 10:09:30;;;;;;;9.03;5.70;;;;;;;6.60;100.00;99956.59;5074462;28;20217;-81
2023/12/15 10:11:57;;;;;;;8.40;5.57;;;;;;;6.69;100.00;99951.13;5074622;28;20240;-81
2023/12/15 10:14:23;;;;;;;10.70;6.13;;;;;;;6.73;100.00;99955.38;5073655;28;20655;-81
2023/12/15 10:16:50;;;;;;;8.77;5.93;;;;;;;6.85;100.00;99957.69;5074640;28;20210;-81
2023/12/15 10:19:18;;;;;;;8.70;5.23;;;;;;;6.89;100.00;99954.09;5074651;28;20208;-82
2023/12/15 10:21:44;;;;;;;8.30;5.30;;;;;;;7.04;100.00;99969.50;5074057;28;20234;-82
2023/12/15 10:24:23;;;;;;;8.50;5.50;;;;;;;7.08;100.00;99963.22;5074317;28;20271;-81
2023/12/15 10:26:50;;;;;;;9.63;6.03;;;;;;;7.17;100.00;99955.13;5069336;28;20214;-81
2023/12/15 10:29:18;;;;;;;8.53;5.90;;;;;;;7.24;100.00;99961.94;5073095;28;20663;-81
2023/12/15 10:31:45;;;;;;;7.90;5.80;;;;;;;7.28;100.00;99971.47;5075434;28;20223;-81
2023/12/15 10:34:11;;;;;;;9.00;5.70;;;;;;;7.37;100.00;99968.59;5076230;28;20210;-81
2023/12/15 10:36:40;;;;;;;9.67;5.43;;;;;;;7.35;100.00;99954.63;5074584;28;20624;-81
2023/12/15 10:39:07;;;;;;;9.53;6.03;;;;;;;7.29;100.00;99955.63;5077486;28;20207;-81
2023/12/15 10:41:35;;;;;;;8.23;4.73;;;;;;;7.36;100.00;99951.06;5078633;28;20289;-81
2023/12/15 10:44:02;;;;;;;7.53;4.40;;;;;;;7.41;100.00;99951.81;5077129;28;20208;-80
2023/12/15 10:46:29;;;;;;;6.77;4.47;;;;;;;7.45;100.00;99956.06;5074551;28;20658;-78
2023/12/15 10:48:56;;;;;;;7.27;5.20;;;;;;;7.49;100.00;99962.97;5073513;28;20211;-78
2023/12/15 10:51:25;;;;;;;8.07;4.90;;;;;;;7.57;100.00;99961.00;5074378;28;20314;-78
2023/12/15 10:53:53;;;;;;;7.87;5.20;;;;;;;7.58;100.00;99958.31;5074889;28;20259;-78
2023/12/15 10:56:21;;;;;;;7.13;5.13;;;;;;;7.51;100.00;99955.91;5074226;28;20235;-78
2023/12/15 10:58:49;;;;;;;8.63;4.70;;;;;;;7.46;100.00;99952.53;5075170;28;20288;-78
2023/12/15 11:01:17;;;;;;;7.40;4.83;;;;;;;7.46;100.00;99953.41;5074403;28;20230;-78
2023/12/15 11:03:44;;;;;;;7.10;4.73;;;;;;;7.46;100.00;99953.41;5075526;28;20329;-79
2023/12/15 11:06:11;;;;;;;7.10;4.70;;;;;;;7.43;100.00;99960.53;5075556;28;20318;-80
2023/12/15 11:08:38;;;;;;;5.97;4.37;;;;;;;7.39;100.00;99956.25;5070890;28;20204;-78
2023/12/15 11:11:07;;;;;;;6.60;4.40;;;;;;;7.42;100.00;99946.50;5074430;28;20240;-79
2023/12/15 11:13:51;;;;;;;5.27;3.73;;;;;;;7.47;100.00;99965.66;5077115;28;20665;-79
2023/12/15 11:16:18;;;;;;;5.57;3.93;;;;;;;7.51;100.00;99953.25;5076502;28;20249;-78
2023/12/15 11:18:45;;;;;;;5.10;3.40;;;;;;;7.65;100.00;99966.91;5078016;28;20207;-79
2023/12/15 11:21:12;;;;;;;5.87;4.17;;;;;;;7.65;100.00;99964.28;5079175;28;20231;-78
2023/12/15 11:23:50;;;;;;;4.77;3.53;;;;;;;7.62;100.00;99974.88;5077350;28;20211;-81
2023/12/15 11:26:21;;;;;;;4.80;3.37;;;;;;;7.50;100.00;99969.97;5073857;28;20228;-79
2023/12/15 11:28:49;;;;;;;4.60;3.40;;;;;;;7.39;100.00;99972.03;5077655;28;20670;-78